Airports and Charts


LSZR - Altenrhein
Flughafeninformationen
Deutsch
St. Gallen liegt am Südufer des Bodensees, nur ein paar Seemeilen von Friedrichshafen entfernt. Trotz der relativ kurzen Piste, verfügt St. Gallen über ein ILS-Anflugverfahren und verschiedene SIDs. Für angehende Piloten ist dieser Platz ein optimaler Ort, um auf kleinen Flugzeugen die ersten IFR-Schritte zu wagen, da Orte wie Zürich, Friedrichshafen, Basel, Innsbruck und Stuttgart nicht weit entfernt liegen. Fortgeschrittene Piloten dürfen sich mit grösserem Gerät auf die kurze Bahn wagen.
Runway Preferential runway system
Identifier Approach Dimension Surface
10
(098°)
ILS/DME 1500 x 30 m
(4921 x 98 ft)
Asphalt
28
(278°)
VISUAL

Landing rwy 10 for all IFR traffic and rwy 28 for VFR. Departure rwy 28 for all acft, with tailwind components of up to 5 kts. Otherwise, runway 10 will be used

METEO Reports
METAR
LSZR
220420Z 27005KT 9999 FEW011 SCT040 11/09 Q1028 NOSIG
RMK A
LSZR
220450Z 27005KT 9999 FEW011 SCT040 11/09 Q1028 NOSIG
RMK A
TAF
TAF LSZR
220225Z 2203/2212 25004KT 9999 OVC010
BECMG 2205/2207 SCT015
BECMG 2207/2209 CAVOK

Charts
Charts - LSZR
Altenrhein
  FilenameReleased
F Approach RWY10 ILS06.03.2013
F Arrival STAR11.02.2012
F Departure SID All11.02.2012
F Departure SID1 P-RNAV11.02.2012
F Departure SID2 B-RNAV11.02.2012
F Departure SID3 NON-RNAV11.02.2012
F Departure SID4 TRANSITIONS NORTH11.02.2012
F Ground GND11.02.2012
F Package Fullpack06.03.2013
F VFR VAC11.02.2012

Sceneries
Sceneries - LSZR
Altenrhein
  FilenameReleased
E Freeware Altenrhein for MSFS202018.08.2021
E Payware FlyLogic Altenrhein for FSX29.05.2017
E Payware Flylogic Altenrhein for XP1124.01.2021

Stations
KennzeichenNameFrequenz
LSAS_CTR Swiss Radar 128.050 MHz
LSAS_A_CTR Swiss Radar 135.670 MHz
LSAS_B_CTR Swiss Radar 133.900 MHz
LSAS_C_CTR Swiss Radar 135.150 MHz
LSAS_D_CTR Swiss Radar 128.900 MHz
LSAS_F_CTR Swiss Radar 124.020 MHz
LSAS_G_CTR Swiss Radar 134.320 MHz
LSAS_H_CTR Swiss Radar 134.020 MHz
LSAS_J_CTR Swiss Radar 133.620 MHz
LSAS_U_CTR Swiss Radar 133.400 MHz
LSAS_V_CTR Swiss Radar 133.050 MHz
LSAS_I_CTR Swiss Information 124.700 MHz
LSZH_APP Zurich Arrival 135.220 MHz
LSZH_A_APP Zurich Arrival (ARFA) 119.920 MHz
LSZR_TWR Altenrhein Tower 135.420 MHz
LSZR_ATIS Altenrhein ATIS 123.770 MHz


 

online atc

  • no controllers are online

bookings overview

events RSS

news RSS

  • Sommer Pause 2021

    26.06.2021 15:03:11 z

    Liebe Piloten und Controller Die Sommerferienzeit und hoffentlich auch ein ...

  • Cross The Land Eastbound Voting

    18.04.2020 07:59:09 z

    Das Voting zur Selektion der Flughäfen für das Event Cross The Land vom 13. ...

  • VA Meeting 2020

    17.03.2020 15:08:00 z

    Die vACC Schweiz präsentiert euch stolz die nächste Ausgabe unseres ...